createdAt,value
2022-11-21T00:00:32.197Z,67.54
2022-11-21T00:03:01.429Z,66.69
2022-11-21T00:05:29.217Z,67.02
2022-11-21T00:07:56.478Z,68.05
2022-11-21T00:10:24.226Z,66.89
2022-11-21T00:12:55.297Z,66.71
2022-11-21T00:15:22.288Z,66.79
2022-11-21T00:17:48.748Z,67.48
2022-11-21T00:20:15.922Z,67.91
2022-11-21T00:22:42.374Z,68.64
2022-11-21T00:25:09.275Z,68.66
2022-11-21T00:27:35.844Z,68.14
2022-11-21T00:30:02.313Z,68.33
2022-11-21T00:32:28.761Z,67.89
2022-11-21T00:34:55.189Z,66.74
2022-11-21T00:37:21.635Z,66.71
2022-11-21T00:39:48.053Z,67.24
2022-11-21T00:42:14.526Z,68.89
2022-11-21T00:44:40.968Z,69.55
2022-11-21T00:47:07.400Z,68.79
2022-11-21T00:49:33.895Z,67.47
2022-11-21T00:52:00.374Z,67.83
2022-11-21T00:54:27.133Z,68.44
2022-11-21T00:56:53.751Z,67.96
2022-11-21T00:59:20.271Z,68.94
2022-11-21T01:01:46.735Z,68.13
2022-11-21T01:04:13.208Z,68.49
2022-11-21T01:06:40.010Z,67.00
2022-11-21T01:09:06.644Z,66.76
2022-11-21T01:11:33.192Z,68.04
2022-11-21T01:13:59.708Z,68.38
2022-11-21T01:16:27.714Z,68.62
2022-11-21T01:18:54.307Z,68.53
2022-11-21T01:21:23.261Z,68.90
2022-11-21T01:23:50.510Z,69.06
2022-11-21T01:26:19.927Z,67.92
2022-11-21T01:28:46.877Z,68.59
2022-11-21T01:31:24.542Z,69.74
2022-11-21T01:33:51.584Z,70.57
2022-11-21T01:36:23.670Z,71.30
2022-11-21T01:38:51.956Z,72.03
2022-11-21T01:41:31.428Z,71.05
2022-11-21T01:43:58.533Z,72.36
2022-11-21T01:46:25.779Z,71.07
2022-11-21T01:49:07.127Z,71.91
2022-11-21T01:51:33.520Z,71.23
2022-11-21T01:54:07.908Z,70.43
2022-11-21T01:56:40.171Z,71.32
2022-11-21T01:59:08.816Z,72.37
2022-11-21T02:01:36.334Z,72.96
2022-11-21T02:04:03.629Z,73.30
2022-11-21T02:06:32.154Z,73.77
2022-11-21T02:08:59.695Z,74.15
2022-11-21T02:11:42.693Z,72.80
2022-11-21T02:14:09.333Z,73.55
2022-11-21T02:16:35.990Z,73.59
2022-11-21T02:19:02.605Z,72.07
2022-11-21T02:22:01.355Z,72.34
2022-11-21T02:24:51.923Z,70.79
2022-11-21T02:27:18.714Z,71.02
2022-11-21T02:29:45.202Z,70.86
2022-11-21T02:32:21.410Z,70.43
2022-11-21T02:34:47.874Z,70.47
2022-11-21T02:37:14.390Z,70.08
2022-11-21T02:39:41.289Z,70.30
2022-11-21T02:42:24.975Z,70.71
2022-11-21T02:45:14.656Z,71.60
2022-11-21T02:47:41.850Z,70.60
2022-11-21T02:50:23.957Z,71.01
2022-11-21T02:52:50.410Z,71.71
2022-11-21T02:55:17.119Z,71.37
2022-11-21T02:57:43.630Z,70.49
2022-11-21T03:00:11.269Z,71.33
2022-11-21T03:02:38.009Z,71.46
2022-11-21T03:05:05.977Z,70.84
2022-11-21T03:07:32.500Z,70.25
2022-11-21T03:09:58.947Z,70.09
2022-11-21T03:12:25.440Z,68.67
2022-11-21T03:14:51.886Z,69.41
2022-11-21T03:17:18.692Z,70.54
2022-11-21T03:19:45.199Z,70.20
2022-11-21T03:22:13.154Z,69.87
2022-11-21T03:24:39.598Z,68.81
2022-11-21T03:27:06.088Z,69.24
2022-11-21T03:29:32.587Z,70.34
2022-11-21T03:31:59.424Z,70.10
2022-11-21T03:34:26.164Z,70.42
2022-11-21T03:36:52.887Z,68.81
2022-11-21T03:39:19.323Z,69.71
2022-11-21T03:41:45.799Z,70.15
2022-11-21T03:44:12.766Z,69.95
2022-11-21T03:46:41.864Z,69.56
2022-11-21T03:49:08.947Z,68.83
2022-11-21T03:51:35.857Z,69.97
2022-11-21T03:54:02.682Z,70.05
2022-11-21T03:56:29.433Z,69.42
2022-11-21T03:58:55.923Z,69.29
2022-11-21T04:01:23.149Z,69.66
2022-11-21T04:03:50.264Z,69.43
2022-11-21T04:06:19.460Z,70.05
2022-11-21T04:08:45.960Z,70.06
2022-11-21T04:11:12.598Z,71.23
2022-11-21T04:13:39.387Z,70.32
2022-11-21T04:16:06.249Z,70.47
2022-11-21T04:18:34.042Z,70.58
2022-11-21T04:21:02.028Z,71.12
2022-11-21T04:23:28.712Z,71.76
2022-11-21T04:25:55.358Z,72.67
2022-11-21T04:28:22.400Z,71.99
2022-11-21T04:30:49.005Z,71.32
2022-11-21T04:33:16.423Z,70.91
2022-11-21T04:35:43.971Z,71.25
2022-11-21T04:38:11.374Z,70.64
2022-11-21T04:40:38.213Z,72.31
2022-11-21T04:43:05.034Z,70.53
2022-11-21T04:45:31.976Z,70.71
2022-11-21T04:47:58.390Z,71.62
2022-11-21T04:50:25.025Z,71.70
2022-11-21T04:52:56.393Z,71.71
2022-11-21T04:55:24.987Z,71.36
2022-11-21T04:57:51.447Z,72.30
2022-11-21T05:00:23.841Z,71.65
2022-11-21T05:02:51.053Z,72.13
2022-11-21T05:05:17.573Z,72.88
2022-11-21T05:07:44.087Z,72.12
2022-11-21T05:10:10.623Z,72.04
2022-11-21T05:12:55.682Z,71.87
2022-11-21T05:15:24.898Z,71.25
2022-11-21T05:17:51.758Z,71.42
2022-11-21T05:20:19.047Z,71.15
2022-11-21T05:22:49.928Z,70.55
2022-11-21T05:25:16.829Z,71.24
2022-11-21T05:27:43.366Z,70.30
2022-11-21T05:30:11.264Z,70.81
2022-11-21T05:32:37.871Z,70.60
2022-11-21T05:35:04.490Z,70.68
2022-11-21T05:37:30.980Z,70.60
2022-11-21T05:39:57.536Z,70.73
2022-11-21T05:42:43.968Z,70.76
2022-11-21T05:45:10.703Z,70.97
2022-11-21T05:47:37.287Z,70.61
2022-11-21T05:50:04.421Z,69.81
2022-11-21T05:52:30.856Z,70.41
2022-11-21T05:54:57.356Z,70.61
2022-11-21T05:57:23.786Z,70.12
2022-11-21T05:59:50.255Z,70.00
2022-11-21T06:02:35.323Z,70.55
2022-11-21T06:05:01.801Z,70.63
2022-11-21T06:07:28.255Z,71.13
2022-11-21T06:09:55.107Z,71.64
2022-11-21T06:12:25.316Z,70.78
2022-11-21T06:14:52.272Z,71.03
2022-11-21T06:17:18.774Z,71.01
2022-11-21T06:19:45.208Z,70.98
2022-11-21T06:22:11.655Z,70.83
2022-11-21T06:24:38.105Z,71.07
2022-11-21T06:27:04.557Z,71.29
2022-11-21T06:29:30.986Z,70.52
2022-11-21T06:31:57.491Z,71.04
2022-11-21T06:34:27.116Z,70.90
2022-11-21T06:36:53.880Z,71.37
2022-11-21T06:39:20.330Z,71.35
2022-11-21T06:41:51.094Z,71.81
2022-11-21T06:44:18.600Z,71.71
2022-11-21T06:46:50.762Z,71.02
2022-11-21T06:49:17.554Z,70.47
2022-11-21T06:51:44.011Z,70.96
2022-11-21T06:54:13.866Z,70.90
2022-11-21T06:56:43.223Z,71.05
2022-11-21T06:59:09.645Z,71.59
2022-11-21T07:01:36.177Z,71.23
2022-11-21T07:04:02.750Z,71.38
2022-11-21T07:06:29.199Z,71.35
2022-11-21T07:11:42.439Z,71.67
2022-11-21T07:14:09.596Z,71.67
2022-11-21T07:16:36.281Z,71.95
2022-11-21T07:19:02.768Z,71.54
2022-11-21T07:21:29.359Z,70.48
2022-11-21T07:23:55.819Z,71.45
2022-11-21T07:26:22.337Z,71.62
2022-11-21T07:28:48.785Z,71.21
2022-11-21T07:31:15.274Z,71.32
2022-11-21T07:33:43.527Z,72.25
2022-11-21T07:36:10.928Z,71.81
2022-11-21T07:38:37.357Z,71.71
2022-11-21T07:41:03.976Z,72.59
2022-11-21T07:43:30.479Z,71.33
2022-11-21T07:45:56.968Z,71.58
2022-11-21T07:48:23.446Z,72.82
2022-11-21T07:50:49.949Z,72.18
2022-11-21T07:53:16.409Z,73.48
2022-11-21T07:55:42.900Z,71.76
2022-11-21T07:58:12.131Z,71.67
2022-11-21T08:00:42.705Z,71.53
2022-11-21T08:03:09.396Z,71.89
2022-11-21T08:05:37.346Z,71.42
2022-11-21T08:08:04.474Z,72.28
2022-11-21T08:10:31.070Z,71.92
2022-11-21T08:12:57.536Z,71.18
2022-11-21T08:15:24.013Z,72.19
2022-11-21T08:17:50.484Z,73.22
2022-11-21T08:20:17.219Z,73.45
2022-11-21T08:22:43.833Z,72.12
2022-11-21T08:25:10.782Z,72.28
2022-11-21T08:27:38.652Z,71.53
2022-11-21T08:30:09.853Z,72.53
2022-11-21T08:32:36.598Z,72.86
2022-11-21T08:35:03.653Z,71.72
2022-11-21T08:37:30.223Z,71.90
2022-11-21T08:39:58.970Z,71.78
2022-11-21T08:42:26.054Z,71.35
2022-11-21T08:44:52.549Z,71.54
2022-11-21T08:47:20.552Z,72.01
2022-11-21T08:49:47.496Z,71.48
2022-11-21T08:52:14.796Z,72.33
2022-11-21T08:54:41.338Z,72.66
2022-11-21T08:57:07.851Z,72.24
2022-11-21T08:59:34.273Z,71.74
2022-11-21T09:02:00.917Z,73.12
2022-11-21T09:04:27.652Z,73.13
2022-11-21T09:06:54.366Z,73.38
2022-11-21T09:09:25.370Z,73.16
2022-11-21T09:11:52.263Z,72.31
2022-11-21T09:14:37.347Z,71.76
2022-11-21T09:17:22.528Z,72.20
2022-11-21T09:19:49.084Z,72.46
2022-11-21T09:22:15.598Z,73.34
2022-11-21T09:24:42.078Z,73.42
2022-11-21T09:27:08.647Z,73.62
2022-11-21T09:29:35.138Z,71.85
2022-11-21T09:32:01.726Z,73.77
2022-11-21T09:34:28.497Z,73.01
2022-11-21T09:36:55.584Z,73.65
2022-11-21T09:39:23.020Z,74.96
2022-11-21T09:41:58.267Z,74.24
2022-11-21T09:44:33.914Z,74.62
2022-11-21T09:47:05.504Z,75.14
2022-11-21T09:49:38.856Z,74.26
2022-11-21T09:52:05.569Z,74.09
2022-11-21T09:54:34.662Z,72.77
2022-11-21T09:57:01.179Z,72.58
2022-11-21T09:59:38.919Z,73.59
2022-11-21T10:02:15.837Z,73.86
2022-11-21T10:04:42.692Z,73.61
2022-11-21T10:07:24.986Z,71.93
2022-11-21T10:10:22.527Z,73.40
2022-11-21T10:12:58.140Z,72.56
2022-11-21T10:15:38.253Z,72.93
2022-11-21T10:18:28.007Z,72.89
2022-11-21T10:21:15.773Z,73.89
2022-11-21T10:23:42.189Z,74.09
2022-11-21T10:26:38.600Z,72.32
2022-11-21T10:29:12.607Z,73.10
2022-11-21T10:31:40.372Z,73.33
2022-11-21T10:34:12.506Z,73.34
2022-11-21T10:36:41.256Z,74.13
2022-11-21T10:39:14.863Z,73.20
2022-11-21T10:42:00.680Z,71.54
2022-11-21T10:44:47.213Z,73.20
2022-11-21T10:47:14.862Z,72.77
2022-11-21T10:49:42.456Z,72.34
2022-11-21T10:52:16.464Z,70.56
2022-11-21T10:55:04.701Z,71.90
2022-11-21T10:57:50.951Z,72.25
2022-11-21T11:00:22.484Z,72.20
2022-11-21T11:02:55.065Z,71.84
2022-11-21T11:05:25.432Z,72.57
2022-11-21T11:08:04.178Z,71.40
2022-11-21T11:10:32.341Z,71.13
2022-11-21T11:13:45.282Z,72.00
2022-11-21T11:16:04.582Z,71.60
2022-11-21T11:21:20.517Z,70.89
2022-11-21T11:23:49.056Z,70.92
2022-11-21T11:26:25.090Z,70.02
2022-11-21T11:28:51.651Z,69.91
2022-11-21T11:31:18.317Z,70.00
2022-11-21T11:33:47.765Z,70.17
2022-11-21T11:36:17.089Z,69.54
2022-11-21T11:38:53.659Z,69.24
2022-11-21T11:41:30.990Z,69.30
2022-11-21T11:44:28.963Z,68.38
2022-11-21T11:47:24.418Z,70.43
2022-11-21T11:50:11.359Z,70.21
2022-11-21T11:52:49.586Z,69.77
2022-11-21T11:55:22.372Z,70.18
2022-11-21T11:57:50.710Z,70.01
2022-11-21T12:00:32.653Z,69.97
2022-11-21T12:03:06.235Z,70.44
2022-11-21T12:05:32.699Z,70.20
2022-11-21T12:08:40.262Z,70.26
2022-11-21T12:11:27.441Z,69.56
2022-11-21T12:13:54.819Z,69.47
2022-11-21T12:16:21.879Z,69.34
2022-11-21T12:19:11.130Z,69.04
2022-11-21T12:21:37.603Z,67.94
2022-11-21T12:24:04.754Z,69.18
2022-11-21T12:26:45.521Z,68.89
2022-11-21T12:29:21.283Z,68.63
2022-11-21T12:31:59.930Z,68.38
2022-11-21T12:35:00.488Z,68.22
2022-11-21T12:37:36.947Z,69.60
2022-11-21T12:40:21.413Z,69.20
2022-11-21T12:42:50.881Z,68.43
2022-11-21T12:45:31.711Z,68.60
2022-11-21T12:48:25.419Z,66.60
2022-11-21T12:51:39.688Z,66.83
2022-11-21T12:54:27.685Z,67.41
2022-11-21T12:57:21.688Z,66.60
2022-11-21T13:00:09.786Z,65.43
2022-11-21T13:03:01.163Z,64.98
2022-11-21T13:05:30.142Z,66.82
2022-11-21T13:08:21.287Z,66.02
2022-11-21T13:11:21.594Z,66.41
2022-11-21T13:13:49.848Z,66.59
2022-11-21T13:16:36.952Z,67.71
2022-11-21T13:19:17.343Z,66.50
2022-11-21T13:21:51.195Z,67.72
2022-11-21T13:24:50.090Z,66.62
2022-11-21T13:27:38.782Z,65.13
2022-11-21T13:30:09.033Z,65.31
2022-11-21T13:32:42.144Z,66.22
2022-11-21T13:35:15.006Z,66.15
2022-11-21T13:37:59.806Z,64.99
2022-11-21T13:40:26.238Z,66.98
2022-11-21T13:43:35.575Z,64.96
2022-11-21T13:46:02.388Z,65.27
2022-11-21T13:48:30.425Z,66.58
2022-11-21T13:51:08.825Z,65.68
2022-11-21T13:53:57.588Z,65.22
2022-11-21T13:56:44.758Z,66.15
2022-11-21T13:59:37.803Z,65.49
2022-11-21T14:02:32.823Z,65.26
2022-11-21T14:05:24.028Z,65.13
2022-11-21T14:07:50.808Z,65.78
2022-11-21T14:10:33.705Z,65.60
2022-11-21T14:13:01.800Z,66.65
2022-11-21T14:15:50.107Z,64.81
2022-11-21T14:18:23.507Z,64.22
2022-11-21T14:20:54.034Z,64.73
2022-11-21T14:23:22.217Z,64.24
2022-11-21T14:25:51.136Z,64.62
2022-11-21T14:28:25.018Z,64.39
2022-11-21T14:31:06.580Z,63.22
2022-11-21T14:33:34.712Z,63.30
2022-11-21T14:36:16.098Z,64.07
2022-11-21T14:39:07.760Z,63.96
2022-11-21T14:41:36.106Z,64.71
2022-11-21T14:44:02.818Z,65.08
2022-11-21T14:46:34.793Z,65.15
2022-11-21T14:49:21.758Z,65.41
2022-11-21T14:51:51.375Z,65.51
2022-11-21T14:54:22.947Z,65.41
2022-11-21T14:56:56.775Z,65.94
2022-11-21T14:59:29.346Z,67.55
2022-11-21T15:01:58.795Z,67.26
2022-11-21T15:04:44.814Z,65.59
2022-11-21T15:07:44.094Z,67.05
2022-11-21T15:10:29.370Z,66.85
2022-11-21T15:13:00.474Z,65.94
2022-11-21T15:15:43.946Z,65.67
2022-11-21T15:18:27.753Z,64.50
2022-11-21T15:21:00.186Z,64.91
2022-11-21T15:23:40.112Z,64.26
2022-11-21T15:26:29.110Z,64.06
2022-11-21T15:28:57.070Z,63.70
2022-11-21T15:31:23.756Z,63.27
2022-11-21T15:37:04.727Z,64.45
2022-11-21T15:39:31.525Z,63.80
2022-11-21T15:42:27.350Z,64.18
2022-11-21T15:45:04.268Z,64.68
2022-11-21T15:47:30.811Z,64.72
2022-11-21T15:49:57.385Z,65.75
2022-11-21T15:52:23.976Z,66.01
2022-11-21T15:54:50.560Z,65.42
2022-11-21T15:59:50.171Z,65.06
2022-11-21T16:02:16.615Z,65.10
2022-11-21T16:04:43.135Z,65.12
2022-11-21T16:07:09.640Z,65.40
2022-11-21T16:09:37.373Z,64.65
2022-11-21T16:12:04.036Z,64.95
2022-11-21T16:14:30.806Z,64.73
2022-11-21T16:16:57.243Z,64.96
2022-11-21T16:19:23.704Z,65.17
2022-11-21T16:21:50.146Z,65.22
2022-11-21T16:24:16.793Z,65.93
2022-11-21T16:26:43.226Z,65.92
2022-11-21T16:29:10.765Z,65.88
2022-11-21T16:31:37.236Z,66.43
2022-11-21T16:34:03.769Z,65.92
2022-11-21T16:36:31.472Z,65.83
2022-11-21T16:39:05.167Z,66.38
2022-11-21T16:41:35.084Z,65.62
2022-11-21T16:44:01.541Z,66.72
2022-11-21T16:46:28.020Z,66.89
2022-11-21T16:49:00.577Z,66.93
2022-11-21T16:51:27.854Z,66.96
2022-11-21T16:53:54.629Z,66.57
2022-11-21T16:56:21.136Z,66.64
2022-11-21T16:58:47.669Z,66.76
2022-11-21T17:01:16.260Z,66.42
2022-11-21T17:03:44.082Z,66.60
2022-11-21T17:06:13.683Z,67.10
2022-11-21T17:08:40.215Z,67.73
2022-11-21T17:11:21.919Z,68.02
2022-11-21T17:13:49.900Z,67.81
2022-11-21T17:16:18.224Z,68.26
2022-11-21T17:18:45.197Z,69.06
2022-11-21T17:21:13.899Z,69.36
2022-11-21T17:23:42.309Z,68.38
2022-11-21T17:26:11.214Z,69.28
2022-11-21T17:28:43.982Z,68.83
2022-11-21T17:31:14.571Z,69.37
2022-11-21T17:33:41.380Z,69.83
2022-11-21T17:36:12.208Z,69.29
2022-11-21T17:38:39.896Z,68.00
2022-11-21T17:41:07.942Z,69.22
2022-11-21T17:43:34.891Z,69.69
2022-11-21T17:46:09.136Z,69.78
2022-11-21T17:48:37.196Z,70.78
2022-11-21T17:51:10.587Z,69.54
2022-11-21T17:53:39.941Z,69.79
2022-11-21T17:56:07.491Z,70.44
2022-11-21T17:58:34.310Z,69.59
2022-11-21T18:01:03.459Z,70.63
2022-11-21T18:03:30.128Z,69.77
2022-11-21T18:06:02.168Z,69.07
2022-11-21T18:08:33.408Z,69.38
2022-11-21T18:11:00.091Z,69.74
2022-11-21T18:13:28.105Z,69.86
2022-11-21T18:15:54.836Z,70.65
2022-11-21T18:18:21.357Z,69.20
2022-11-21T18:20:47.834Z,69.15
2022-11-21T18:23:15.070Z,71.45
2022-11-21T18:25:41.793Z,71.72
2022-11-21T18:28:08.504Z,71.30
2022-11-21T18:30:35.588Z,70.70
2022-11-21T18:33:03.204Z,70.61
2022-11-21T18:35:29.783Z,71.44
2022-11-21T18:37:58.063Z,69.68
2022-11-21T18:40:25.036Z,70.29
2022-11-21T18:42:51.811Z,69.76
2022-11-21T18:45:18.402Z,69.81
2022-11-21T18:47:47.927Z,69.70
2022-11-21T18:50:15.747Z,71.02
2022-11-21T18:52:46.441Z,69.26
2022-11-21T18:55:13.462Z,70.50
2022-11-21T18:57:42.886Z,70.62
2022-11-21T19:00:10.360Z,69.45
2022-11-21T19:02:37.449Z,69.74
2022-11-21T19:05:04.265Z,69.68
2022-11-21T19:07:30.970Z,68.78
2022-11-21T19:10:20.338Z,69.81
2022-11-21T19:12:43.955Z,69.82
2022-11-21T19:15:11.697Z,70.58
2022-11-21T19:17:38.801Z,69.47
2022-11-21T19:20:05.726Z,69.79
2022-11-21T19:22:32.164Z,69.71
2022-11-21T19:24:58.874Z,69.36
2022-11-21T19:27:25.425Z,70.53
2022-11-21T19:29:54.979Z,71.24
2022-11-21T19:32:21.684Z,71.39
2022-11-21T19:34:48.134Z,70.21
2022-11-21T19:37:14.593Z,69.01
2022-11-21T19:39:41.146Z,71.01
2022-11-21T19:42:07.688Z,69.45
2022-11-21T19:44:34.147Z,70.53
2022-11-21T19:47:00.598Z,71.40
2022-11-21T19:49:27.324Z,71.73
2022-11-21T19:51:53.958Z,70.86
2022-11-21T19:54:20.410Z,70.16
2022-11-21T19:56:46.906Z,70.43
2022-11-21T19:59:13.708Z,70.04
2022-11-21T20:01:40.747Z,69.90
2022-11-21T20:04:07.436Z,69.65
2022-11-21T20:06:39.079Z,70.45
2022-11-21T20:09:14.682Z,70.85
2022-11-21T20:11:42.522Z,72.16
2022-11-21T20:14:09.132Z,71.23
2022-11-21T20:16:42.164Z,70.07
2022-11-21T20:19:10.731Z,71.21
2022-11-21T20:21:37.823Z,70.63
2022-11-21T20:24:05.345Z,70.41
2022-11-21T20:26:32.269Z,71.65
2022-11-21T20:28:58.909Z,72.06
2022-11-21T20:31:30.249Z,70.37
2022-11-21T20:34:02.239Z,70.72
2022-11-21T20:36:30.768Z,72.01
2022-11-21T20:39:01.170Z,71.33
2022-11-21T20:41:30.038Z,71.34
2022-11-21T20:46:45.234Z,71.00
2022-11-21T20:49:12.491Z,71.42
2022-11-21T20:54:26.381Z,73.15
2022-11-21T20:56:53.000Z,71.75
2022-11-21T20:59:19.448Z,71.59
2022-11-21T21:01:45.969Z,73.34
2022-11-21T21:04:12.554Z,72.21
2022-11-21T21:06:39.611Z,71.97
2022-11-21T21:09:06.112Z,73.35
2022-11-21T21:14:19.061Z,72.68
2022-11-21T21:16:45.582Z,73.05
2022-11-21T21:19:12.028Z,73.34
2022-11-21T21:21:40.175Z,72.98
2022-11-21T21:24:08.127Z,73.80
2022-11-21T21:26:42.273Z,73.71
2022-11-21T21:29:11.484Z,73.14
2022-11-21T21:31:37.916Z,72.82
2022-11-21T21:34:04.422Z,73.07
2022-11-21T21:36:32.282Z,72.50
2022-11-21T21:38:59.970Z,73.33
2022-11-21T21:41:27.982Z,73.07
2022-11-21T21:43:55.774Z,73.96
2022-11-21T21:46:24.468Z,73.02
2022-11-21T21:48:56.233Z,72.87
2022-11-21T21:51:27.896Z,73.81
2022-11-21T21:53:55.804Z,73.78
2022-11-21T21:56:23.243Z,73.75
2022-11-21T21:58:50.329Z,73.40
2022-11-21T22:01:18.914Z,73.62
2022-11-21T22:03:46.889Z,75.08
2022-11-21T22:06:16.193Z,74.20
2022-11-21T22:08:43.834Z,76.25
2022-11-21T22:11:12.473Z,74.44
2022-11-21T22:13:40.783Z,73.67
2022-11-21T22:16:09.188Z,74.93
2022-11-21T22:18:39.558Z,75.19
2022-11-21T22:21:32.574Z,76.04
2022-11-21T22:26:50.254Z,74.79
2022-11-21T22:29:16.946Z,73.69
2022-11-21T22:31:43.741Z,74.50
2022-11-21T22:34:13.431Z,73.93
2022-11-21T22:36:43.391Z,74.46
2022-11-21T22:39:10.549Z,76.82
2022-11-21T22:41:37.350Z,76.76
2022-11-21T22:44:04.510Z,74.64
2022-11-21T22:46:31.707Z,75.88
2022-11-21T22:48:59.170Z,75.08
2022-11-21T22:51:29.996Z,75.56
2022-11-21T22:53:57.745Z,75.66
2022-11-21T22:56:25.155Z,76.09
2022-11-21T22:58:52.027Z,76.01
2022-11-21T23:01:21.220Z,75.51
2022-11-21T23:03:49.097Z,76.93
2022-11-21T23:06:21.280Z,75.15
2022-11-21T23:08:48.228Z,76.35
2022-11-21T23:11:22.750Z,76.20
2022-11-21T23:13:51.611Z,76.55
2022-11-21T23:16:18.865Z,75.13
2022-11-21T23:18:45.873Z,74.81
2022-11-21T23:23:40.368Z,75.68
2022-11-21T23:26:07.411Z,73.11
2022-11-21T23:28:34.077Z,73.95
2022-11-21T23:31:00.784Z,75.75
2022-11-21T23:33:27.307Z,75.21
2022-11-21T23:35:53.773Z,73.44
2022-11-21T23:38:21.235Z,74.37
2022-11-21T23:40:48.612Z,75.24
2022-11-21T23:43:15.956Z,74.28
2022-11-21T23:45:42.822Z,74.57
2022-11-21T23:48:09.459Z,75.41
2022-11-21T23:50:35.945Z,74.87
2022-11-21T23:53:02.584Z,74.55
2022-11-21T23:55:29.081Z,75.36
2022-11-21T23:57:55.515Z,76.48
